Freestone, California
Current Conditions -  °F | °C
As of 2:39 AM on Friday 24 Oct 2014 (Local Time) from KSTS Reporting Station
Moderate Fog Moderate Fog  
Wind Chill: 52°   Ceiling: 500
Heat Index: 52°   Visibility: 0.5mi
Dew Point: 50°   Wind: 3mph
Humidity: 94%   Direction: 320°NW
Pressure: 29.97"   Gusts: NA
Location:  38.3844°N, 122.859°W
Report Text: KSTS 240939Z AUTO 32003KT 1/2SM FG VV005 11/10 A2997 RMK AO2
Loading
Personal Weather Stations






























Interactive Weather Map
Tropical Storm Tracking
New forecast layout! Learn more

10-Day Weather Forecast

Advertisements
Track Severe Weather on mobile